Time;durP1;ratioP1;P1;durP2;ratioP2;P2;SDS_P1;SDS_P2;PMS_P1;PMS_P2;Temp;Humidity;BMP_temperature;BMP_pressure;BME280_temperature;BME280_humidity;BME280_pressure;Samples;Min_cycle;Max_cycle;Signal;HPM_P1;HPM_P2
2021/06/01 00:01:32;;;;;;;9.33;7.30;;;11.50;99.90;;;;;;5076871;28;20192;-71
2021/06/01 00:04:00;;;;;;;8.53;7.40;;;11.50;99.90;;;;;;5092496;28;20203;-71
2021/06/01 00:06:27;;;;;;;8.77;6.83;;;11.50;99.90;;;;;;5092501;28;20279;-71
2021/06/01 00:08:56;;;;;;;8.27;7.47;;;11.40;99.90;;;;;;5092704;28;20196;-70
2021/06/01 00:11:23;;;;;;;8.30;7.27;;;11.40;99.90;;;;;;5092565;28;20219;-70
2021/06/01 00:13:52;;;;;;;9.73;7.40;;;11.30;99.90;;;;;;5092329;28;20204;-71
2021/06/01 00:16:21;;;;;;;8.27;7.30;;;11.30;99.90;;;;;;5092246;28;20204;-71
2021/06/01 00:18:48;;;;;;;8.17;7.33;;;11.30;99.90;;;;;;5092517;28;20200;-69
2021/06/01 00:21:16;;;;;;;10.27;8.10;;;11.20;99.90;;;;;;5092524;28;20196;-70
2021/06/01 00:23:44;;;;;;;10.00;8.30;;;11.20;99.90;;;;;;5092454;28;20287;-70
2021/06/01 00:26:12;;;;;;;9.30;8.40;;;11.20;99.90;;;;;;5081947;28;20644;-69
2021/06/01 00:28:41;;;;;;;9.87;8.80;;;11.20;99.90;;;;;;5072021;28;20296;-70
2021/06/01 00:31:09;;;;;;;9.87;8.43;;;11.10;99.90;;;;;;5072233;28;20221;-71
2021/06/01 00:33:38;;;;;;;11.97;9.13;;;11.10;99.90;;;;;;5072031;28;20205;-70
2021/06/01 00:36:06;;;;;;;9.80;8.77;;;11.10;99.90;;;;;;5071951;28;20567;-71
2021/06/01 00:38:34;;;;;;;11.10;9.13;;;11.10;99.90;;;;;;5071788;28;20205;-70
2021/06/01 00:41:01;;;;;;;11.13;9.20;;;11.00;99.90;;;;;;5072201;28;20579;-71
2021/06/01 00:43:29;;;;;;;10.00;8.83;;;11.00;99.90;;;;;;5071894;28;20200;-71
2021/06/01 00:45:56;;;;;;;11.07;9.63;;;11.00;99.90;;;;;;5072136;28;20205;-70
2021/06/01 00:48:25;;;;;;;11.23;9.27;;;11.00;99.90;;;;;;5072759;28;20205;-70
2021/06/01 00:50:52;;;;;;;10.17;8.90;;;11.00;99.90;;;;;;5075425;28;20224;-71
2021/06/01 00:53:21;;;;;;;11.03;9.50;;;10.90;99.90;;;;;;5075453;28;20595;-70
2021/06/01 00:55:48;;;;;;;12.13;10.23;;;10.80;99.90;;;;;;5075353;28;20204;-71
2021/06/01 00:58:15;;;;;;;11.40;10.20;;;10.80;99.90;;;;;;5075337;28;20201;-70
2021/06/01 01:01:08;;;;;;;10.63;9.63;;;10.70;99.90;;;;;;5075340;28;20292;-70
2021/06/01 01:03:41;;;;;;;10.97;9.70;;;10.70;99.90;;;;;;5075113;28;20221;-71
2021/06/01 01:06:30;;;;;;;12.73;9.70;;;10.70;99.90;;;;;;5075224;28;20189;-70
2021/06/01 01:09:01;;;;;;;11.93;9.83;;;10.60;99.90;;;;;;5075340;28;20370;-70
2021/06/01 01:11:36;;;;;;;11.63;9.80;;;10.60;99.90;;;;;;5074987;28;20303;-70
2021/06/01 01:14:08;;;;;;;12.83;10.17;;;10.70;99.90;;;;;;5075113;28;20604;-70
2021/06/01 01:16:38;;;;;;;13.00;10.03;;;10.60;99.90;;;;;;5075260;28;20185;-70
2021/06/01 01:19:12;;;;;;;11.73;10.27;;;10.70;99.90;;;;;;5075032;28;20641;-70
2021/06/01 01:21:44;;;;;;;11.87;9.80;;;10.60;99.90;;;;;;5074939;28;20259;-70
2021/06/01 01:24:25;;;;;;;11.83;10.63;;;10.60;99.90;;;;;;5074730;28;20633;-70
2021/06/01 01:27:01;;;;;;;13.63;10.67;;;10.50;99.90;;;;;;5074575;28;20648;-71
2021/06/01 01:29:37;;;;;;;10.93;9.70;;;10.50;99.90;;;;;;5074857;28;20189;-70
2021/06/01 01:32:07;;;;;;;12.87;10.37;;;10.40;99.90;;;;;;5074718;28;20295;-70
2021/06/01 01:34:38;;;;;;;11.47;9.93;;;10.40;99.90;;;;;;5075123;28;20296;-70
2021/06/01 01:37:07;;;;;;;11.07;9.90;;;10.40;99.90;;;;;;5074360;28;20630;-70
2021/06/01 01:39:40;;;;;;;12.13;9.97;;;10.30;99.90;;;;;;5074716;28;20207;-69
2021/06/01 01:42:11;;;;;;;12.30;10.93;;;10.40;99.90;;;;;;5074449;28;20635;-70
2021/06/01 01:44:48;;;;;;;13.03;10.17;;;10.40;99.90;;;;;;5074499;28;20275;-71
2021/06/01 01:50:05;;;;;;;14.47;10.27;;;10.40;99.90;;;;;;5074435;28;20284;-70
2021/06/01 01:52:36;;;;;;;10.60;9.50;;;10.40;99.90;;;;;;5074017;28;20235;-71
2021/06/01 01:55:07;;;;;;;13.40;9.83;;;10.50;99.90;;;;;;5074658;28;20181;-71
2021/06/01 01:57:35;;;;;;;13.00;10.23;;;10.50;99.90;;;;;;5073982;28;20249;-71
2021/06/01 02:00:07;;;;;;;11.90;9.60;;;10.50;99.90;;;;;;5073114;28;20208;-70
2021/06/01 02:02:35;;;;;;;11.47;10.30;;;10.40;99.90;;;;;;5087718;28;20188;-70
2021/06/01 02:05:08;;;;;;;13.70;12.10;;;10.30;99.90;;;;;;5094364;28;20188;-70
2021/06/01 02:07:37;;;;;;;14.70;13.03;;;10.40;99.90;;;;;;5094444;28;20180;-70
2021/06/01 02:10:07;;;;;;;14.10;12.07;;;10.40;99.90;;;;;;5094094;28;20644;-70
2021/06/01 02:12:35;;;;;;;11.60;9.73;;;10.50;99.90;;;;;;5094176;28;20321;-70
2021/06/01 02:15:03;;;;;;;11.80;10.27;;;10.50;99.90;;;;;;5094209;28;20203;-70
2021/06/01 02:17:31;;;;;;;10.93;9.83;;;10.50;99.90;;;;;;5094175;28;20200;-70
2021/06/01 02:19:58;;;;;;;12.33;10.53;;;10.40;99.90;;;;;;5094058;28;20344;-70
2021/06/01 02:25:28;;;;;;;10.63;9.30;;;10.30;99.90;;;;;;5089687;28;20739;-70
2021/06/01 02:27:59;;;;;;;11.93;9.90;;;10.20;99.90;;;;;;5073743;28;20279;-70
2021/06/01 02:30:31;;;;;;;12.03;9.93;;;10.20;99.90;;;;;;5073494;28;20191;-70
2021/06/01 02:33:01;;;;;;;11.20;10.00;;;10.20;99.90;;;;;;5073530;28;20617;-70
2021/06/01 02:35:34;;;;;;;11.90;9.60;;;10.10;99.90;;;;;;5073478;28;20255;-70
2021/06/01 02:38:05;;;;;;;12.17;9.73;;;10.20;99.90;;;;;;5073588;28;20185;-69
2021/06/01 02:40:34;;;;;;;11.50;9.70;;;10.20;99.90;;;;;;5073523;28;20280;-70
2021/06/01 02:43:05;;;;;;;13.07;10.07;;;10.10;99.90;;;;;;5073224;28;20211;-71
2021/06/01 02:45:36;;;;;;;11.90;9.70;;;10.00;99.90;;;;;;5073495;28;20181;-71
2021/06/01 02:48:04;;;;;;;12.10;10.70;;;9.90;99.90;;;;;;5073474;28;20279;-70
2021/06/01 02:50:32;;;;;;;11.20;10.00;;;9.90;99.90;;;;;;5072941;28;20713;-70
2021/06/01 02:53:02;;;;;;;10.73;9.23;;;9.80;99.90;;;;;;5053237;28;20308;-70
2021/06/01 02:55:30;;;;;;;10.43;9.33;;;9.80;99.90;;;;;;5053159;28;20573;-71
2021/06/01 02:57:58;;;;;;;12.80;9.50;;;9.80;99.90;;;;;;5053147;28;20211;-71
2021/06/01 03:00:26;;;;;;;12.87;10.73;;;9.80;99.90;;;;;;5052877;28;20676;-70
2021/06/01 03:02:55;;;;;;;11.10;9.57;;;9.80;99.90;;;;;;5069067;28;20280;-70
2021/06/01 03:05:30;;;;;;;10.67;9.40;;;9.90;99.90;;;;;;5072930;28;20269;-69
2021/06/01 03:08:11;;;;;;;10.73;9.47;;;9.90;99.90;;;;;;5073066;28;20283;-70
2021/06/01 03:10:39;;;;;;;9.70;8.70;;;9.80;99.90;;;;;;5073088;28;20195;-69
2021/06/01 03:13:07;;;;;;;9.80;8.67;;;9.80;99.90;;;;;;5072408;28;20694;-70
2021/06/01 03:15:34;;;;;;;9.00;7.97;;;9.80;99.90;;;;;;5072943;28;20197;-70
2021/06/01 03:18:01;;;;;;;9.90;8.43;;;9.80;99.90;;;;;;5072892;28;20201;-70
2021/06/01 03:20:29;;;;;;;9.97;8.97;;;9.80;99.90;;;;;;5072697;28;20227;-70
2021/06/01 03:22:56;;;;;;;10.10;9.10;;;9.90;99.90;;;;;;5072873;28;20291;-70
2021/06/01 03:25:25;;;;;;;9.47;8.47;;;9.90;99.90;;;;;;5069091;28;20216;-71
2021/06/01 03:27:52;;;;;;;10.27;9.00;;;9.90;99.90;;;;;;5052618;28;20225;-70
2021/06/01 03:30:20;;;;;;;12.97;10.00;;;9.90;99.90;;;;;;5052326;28;20267;-70
2021/06/01 03:32:48;;;;;;;11.20;9.70;;;10.00;99.90;;;;;;5052625;28;20331;-71
2021/06/01 03:35:16;;;;;;;11.17;9.37;;;10.00;99.90;;;;;;5052491;28;20212;-69
2021/06/01 03:37:43;;;;;;;9.73;8.67;;;10.20;99.90;;;;;;5052611;28;20297;-70
2021/06/01 03:40:12;;;;;;;10.87;8.83;;;10.20;99.90;;;;;;5052797;28;20197;-71
2021/06/01 03:42:41;;;;;;;9.70;8.70;;;10.30;99.90;;;;;;5052413;28;20198;-70
2021/06/01 03:45:09;;;;;;;11.50;9.47;;;10.40;99.90;;;;;;5052264;28;20208;-70
2021/06/01 03:47:37;;;;;;;11.23;10.13;;;10.30;99.90;;;;;;5052613;28;20206;-70
2021/06/01 03:50:06;;;;;;;11.63;10.00;;;10.20;99.90;;;;;;5051896;28;20295;-70
2021/06/01 03:52:33;;;;;;;11.17;9.97;;;10.20;99.90;;;;;;5068529;28;20264;-69
2021/06/01 03:55:01;;;;;;;10.97;9.33;;;10.30;99.90;;;;;;5072442;28;20204;-70
2021/06/01 03:57:28;;;;;;;9.47;8.40;;;10.30;99.90;;;;;;5072480;28;20201;-70
2021/06/01 03:59:57;;;;;;;12.60;9.10;;;10.30;99.90;;;;;;5072343;28;20200;-69
2021/06/01 04:02:24;;;;;;;10.47;8.80;;;10.30;99.90;;;;;;5084039;28;20206;-70
2021/06/01 04:04:52;;;;;;;10.17;8.97;;;10.30;99.90;;;;;;5092376;28;20200;-70
2021/06/01 04:07:19;;;;;;;10.60;9.20;;;10.40;99.90;;;;;;5092501;28;20453;-69
2021/06/01 04:09:46;;;;;;;9.73;8.43;;;10.60;99.90;;;;;;5092467;28;20199;-71
2021/06/01 04:12:14;;;;;;;10.73;8.60;;;10.60;99.90;;;;;;5092715;28;20206;-69
2021/06/01 04:14:41;;;;;;;10.20;8.27;;;10.60;99.90;;;;;;5092247;28;20211;-70
2021/06/01 04:17:10;;;;;;;11.63;8.97;;;10.80;99.90;;;;;;5092491;28;20291;-70
2021/06/01 04:19:37;;;;;;;10.47;8.50;;;10.90;99.90;;;;;;5092229;28;20291;-70
2021/06/01 04:22:05;;;;;;;9.53;8.40;;;10.80;99.90;;;;;;5092275;28;20264;-69
2021/06/01 04:24:32;;;;;;;9.53;8.53;;;10.80;99.90;;;;;;5094922;28;20219;-69
2021/06/01 04:27:01;;;;;;;11.77;8.47;;;10.80;99.90;;;;;;5078980;28;20208;-69
2021/06/01 04:29:29;;;;;;;9.87;8.40;;;10.90;99.90;;;;;;5075788;28;20287;-69
2021/06/01 04:31:57;;;;;;;9.50;8.50;;;11.10;99.90;;;;;;5075587;28;20649;-70
2021/06/01 04:34:26;;;;;;;8.80;7.90;;;11.10;99.90;;;;;;5075543;28;20310;-70
2021/06/01 04:36:53;;;;;;;9.57;8.57;;;11.30;99.90;;;;;;5075828;28;20319;-70
2021/06/01 04:39:21;;;;;;;10.03;8.70;;;11.40;99.90;;;;;;5075754;28;20205;-71
2021/06/01 04:41:48;;;;;;;10.40;8.97;;;11.50;99.90;;;;;;5075575;28;20297;-71
2021/06/01 04:44:15;;;;;;;8.73;7.83;;;11.60;99.90;;;;;;5075225;28;20210;-71
2021/06/01 04:46:44;;;;;;;8.97;7.90;;;11.80;99.90;;;;;;5075746;28;20205;-71
2021/06/01 04:49:11;;;;;;;8.47;7.60;;;12.00;99.90;;;;;;5075405;28;20849;-71
2021/06/01 04:51:40;;;;;;;7.97;7.13;;;12.40;99.90;;;;;;5075311;28;20331;-72
2021/06/01 04:54:07;;;;;;;8.47;6.97;;;13.90;99.90;;;;;;5075382;28;20227;-71
2021/06/01 04:56:35;;;;;;;7.90;7.07;;;16.00;99.90;;;;;;5074991;28;20215;-71
2021/06/01 04:59:02;;;;;;;7.68;6.20;;;18.30;99.90;;;;;;5074787;28;20291;-73
2021/06/01 05:01:30;;;;;;;8.20;6.45;;;20.50;99.90;;;;;;5079571;28;20210;-72
2021/06/01 05:03:57;;;;;;;8.15;6.60;;;22.20;99.90;;;;;;5095665;28;20219;-72
2021/06/01 05:06:24;;;;;;;7.50;5.82;;;22.80;99.90;;;;;;5092699;28;20266;-72
2021/06/01 05:08:53;;;;;;;7.90;6.47;;;23.30;99.90;;;;;;5074258;28;20613;-72
2021/06/01 05:11:20;;;;;;;8.70;5.72;;;24.20;99.90;;;;;;5074505;28;20662;-70
2021/06/01 05:13:48;;;;;;;8.30;6.60;;;24.30;99.90;;;;;;5071737;28;20213;-72
2021/06/01 05:16:15;;;;;;;8.02;5.45;;;25.00;99.90;;;;;;5074666;28;20221;-72
2021/06/01 05:18:43;;;;;;;6.93;6.25;;;25.10;99.90;;;;;;5074016;28;20205;-72
2021/06/01 05:21:10;;;;;;;6.60;5.95;;;25.60;99.90;;;;;;5074961;28;20208;-70
2021/06/01 05:23:38;;;;;;;6.60;5.80;;;25.60;99.90;;;;;;5074735;28;20201;-71
2021/06/01 05:26:06;;;;;;;7.82;5.50;;;25.80;98.30;;;;;;5074898;28;20201;-70
2021/06/01 05:28:36;;;;;;;8.73;4.97;;;25.00;97.40;;;;;;5074423;28;20778;-72
2021/06/01 05:31:12;;;;;;;9.30;6.47;;;24.80;98.10;;;;;;5074784;28;20197;-71
2021/06/01 05:33:42;;;;;;;6.05;5.45;;;24.70;97.20;;;;;;5074894;28;20204;-72
2021/06/01 05:36:10;;;;;;;10.00;6.32;;;24.10;98.20;;;;;;5074394;28;20213;-73
2021/06/01 05:38:37;;;;;;;6.70;5.90;;;23.40;99.70;;;;;;5074383;28;20192;-71
2021/06/01 05:41:07;;;;;;;8.65;6.07;;;22.50;99.90;;;;;;5074690;28;20208;-71
2021/06/01 05:43:34;;;;;;;7.45;5.75;;;21.20;99.90;;;;;;5074497;28;20197;-71
2021/06/01 05:46:02;;;;;;;7.60;6.18;;;20.20;99.90;;;;;;5074528;28;20284;-72
2021/06/01 05:48:29;;;;;;;6.80;5.60;;;19.60;99.90;;;;;;5074505;28;20667;-71
2021/06/01 05:50:57;;;;;;;7.18;5.80;;;18.90;99.90;;;;;;5073966;28;20744;-71
2021/06/01 05:53:25;;;;;;;7.53;5.90;;;18.20;99.90;;;;;;5074145;28;20247;-70
2021/06/01 05:55:53;;;;;;;9.27;6.35;;;17.80;99.90;;;;;;5074494;28;20204;-71
2021/06/01 05:58:23;;;;;;;8.38;6.00;;;17.50;99.90;;;;;;5074046;28;20200;-72
2021/06/01 06:00:51;;;;;;;6.63;5.97;;;17.30;99.90;;;;;;5074251;28;20207;-71
2021/06/01 06:03:19;;;;;;;8.48;5.63;;;17.30;99.90;;;;;;5093640;28;20211;-70
2021/06/01 06:05:48;;;;;;;7.65;5.30;;;17.30;99.90;;;;;;5094220;28;20283;-71
2021/06/01 06:08:17;;;;;;;7.68;6.43;;;17.30;99.90;;;;;;5094100;28;20204;-70
2021/06/01 06:10:45;;;;;;;7.10;5.82;;;17.40;99.90;;;;;;5093893;28;20743;-71
2021/06/01 06:13:13;;;;;;;8.73;6.28;;;17.50;99.90;;;;;;5093841;28;20234;-71
2021/06/01 06:15:43;;;;;;;8.75;6.20;;;17.60;99.90;;;;;;5094186;28;20205;-71
2021/06/01 06:18:22;;;;;;;5.57;5.05;;;17.80;99.90;;;;;;5094219;28;20203;-71
2021/06/01 06:20:49;;;;;;;7.35;6.07;;;17.90;99.90;;;;;;5085111;28;20220;-70
2021/06/01 06:23:17;;;;;;;9.95;6.63;;;18.10;99.90;;;;;;5074273;28;20210;-68
2021/06/01 06:25:44;;;;;;;6.97;5.90;;;18.30;99.90;;;;;;5084264;28;20207;-68
2021/06/01 06:28:11;;;;;;;9.63;6.38;;;18.30;99.90;;;;;;5070371;28;20203;-68
2021/06/01 06:30:39;;;;;;;7.60;5.45;;;18.40;99.90;;;;;;5070070;28;20758;-68
2021/06/01 06:33:07;;;;;;;7.30;5.00;;;18.50;99.90;;;;;;5070554;28;20199;-67
2021/06/01 06:35:35;;;;;;;6.00;5.20;;;18.70;99.90;;;;;;5070287;28;20208;-68
2021/06/01 06:38:02;;;;;;;6.80;4.70;;;18.70;99.90;;;;;;5070457;28;20219;-67
2021/06/01 06:40:30;;;;;;;6.18;4.75;;;18.70;99.90;;;;;;5070397;28;20465;-68
2021/06/01 06:42:57;;;;;;;8.63;4.43;;;18.70;99.90;;;;;;5069921;28;20300;-68
2021/06/01 06:45:25;;;;;;;5.43;4.45;;;18.60;99.90;;;;;;5070231;28;20315;-69
2021/06/01 06:48:04;;;;;;;4.95;4.00;;;18.70;99.90;;;;;;5069484;28;20577;-69
2021/06/01 06:50:34;;;;;;;5.53;4.20;;;18.70;99.90;;;;;;5070125;28;20208;-69
2021/06/01 06:53:03;;;;;;;5.03;4.00;;;18.80;99.90;;;;;;5070252;28;20185;-69
2021/06/01 06:55:31;;;;;;;4.97;3.40;;;18.70;99.90;;;;;;5069772;28;20232;-72
2021/06/01 06:57:59;;;;;;;4.63;3.70;;;18.60;99.90;;;;;;5070294;28;20287;-75
2021/06/01 07:00:27;;;;;;;4.75;3.65;;;18.60;99.90;;;;;;5069624;28;20203;-69
2021/06/01 07:02:54;;;;;;;4.72;4.05;;;18.60;99.90;;;;;;5086234;28;20200;-70
2021/06/01 07:05:23;;;;;;;4.10;3.70;;;18.50;99.90;;;;;;5090194;28;20204;-68
2021/06/01 07:07:56;;;;;;;5.40;3.88;;;18.60;99.90;;;;;;5090362;28;20234;-69
2021/06/01 07:10:24;;;;;;;5.32;3.88;;;18.70;99.90;;;;;;5089747;28;20678;-70
2021/06/01 07:12:52;;;;;;;5.18;4.05;;;18.70;99.90;;;;;;5089818;28;20699;-68
2021/06/01 07:15:36;;;;;;;7.53;5.20;;;18.70;99.90;;;;;;5089490;28;20255;-70
2021/06/01 07:18:05;;;;;;;9.82;5.40;;;18.90;99.90;;;;;;5089728;28;20632;-71
2021/06/01 07:20:33;;;;;;;7.18;5.35;;;19.00;99.90;;;;;;5089469;28;20292;-69
2021/06/01 07:23:02;;;;;;;7.18;4.90;;;19.20;99.90;;;;;;5089803;28;20214;-71
2021/06/01 07:25:29;;;;;;;8.18;4.80;;;19.20;99.90;;;;;;5085189;28;20628;-69
2021/06/01 07:27:57;;;;;;;6.65;5.00;;;19.20;99.90;;;;;;5069543;28;20224;-65
2021/06/01 07:30:25;;;;;;;7.35;4.90;;;19.20;99.90;;;;;;5069429;28;20204;-66
2021/06/01 07:32:52;;;;;;;7.05;5.00;;;19.30;99.90;;;;;;5069405;28;20204;-66
2021/06/01 07:35:22;;;;;;;5.97;4.55;;;19.30;99.90;;;;;;5069358;28;20221;-66
2021/06/01 07:37:50;;;;;;;7.07;4.63;;;19.50;99.90;;;;;;5069565;28;20232;-66
2021/06/01 07:40:19;;;;;;;6.97;4.55;;;19.50;99.90;;;;;;5069669;28;20295;-70
2021/06/01 07:42:46;;;;;;;6.43;4.55;;;19.40;99.90;;;;;;5069092;28;20232;-72
2021/06/01 07:45:15;;;;;;;4.47;4.03;;;19.40;99.90;;;;;;5069297;28;20224;-73
2021/06/01 07:47:43;;;;;;;6.60;4.30;;;19.40;99.90;;;;;;5069178;28;20201;-73
2021/06/01 07:50:12;;;;;;;7.72;3.85;;;19.30;99.90;;;;;;5069280;28;20303;-70
2021/06/01 07:52:39;;;;;;;6.97;3.67;;;19.30;99.90;;;;;;5068814;28;20319;-63
2021/06/01 07:55:07;;;;;;;4.30;3.03;;;19.40;99.90;;;;;;5069135;28;20308;-63
2021/06/01 07:57:37;;;;;;;3.88;3.33;;;19.30;99.90;;;;;;5068769;28;20252;-62
2021/06/01 08:00:09;;;;;;;3.70;3.33;;;19.20;99.90;;;;;;5072511;28;20214;-64
2021/06/01 08:02:36;;;;;;;3.08;2.60;;;19.30;99.90;;;;;;5086817;28;20192;-64
2021/06/01 08:05:05;;;;;;;4.78;2.60;;;19.20;99.90;;;;;;5093457;28;20328;-64
2021/06/01 08:07:34;;;;;;;3.00;2.70;;;19.30;99.90;;;;;;5093553;28;20204;-63
2021/06/01 08:10:01;;;;;;;2.85;2.60;;;19.30;99.90;;;;;;5093156;28;20203;-63
2021/06/01 08:12:29;;;;;;;3.05;2.70;;;19.40;99.90;;;;;;5093290;28;20336;-69
2021/06/01 08:14:58;;;;;;;3.15;2.25;;;19.50;99.90;;;;;;5092856;28;20220;-68
2021/06/01 08:17:26;;;;;;;2.33;2.13;;;19.50;99.90;;;;;;5093285;28;20235;-70
2021/06/01 08:19:55;;;;;;;2.20;2.00;;;19.50;99.90;;;;;;5093179;28;20655;-70
2021/06/01 08:22:31;;;;;;;4.60;2.60;;;19.50;99.90;;;;;;5093230;28;20212;-70
2021/06/01 08:24:58;;;;;;;3.58;2.15;;;19.50;99.90;;;;;;5080492;28;20295;-71
2021/06/01 08:27:28;;;;;;;4.25;2.30;;;19.60;99.90;;;;;;5075364;28;20296;-72
2021/06/01 08:29:57;;;;;;;6.20;5.53;;;19.70;99.90;;;;;;5074491;28;20758;-71
2021/06/01 08:32:25;;;;;;;2.65;2.00;;;19.70;99.90;;;;;;5075867;28;20300;-70
2021/06/01 08:34:52;;;;;;;3.20;1.90;;;19.60;99.90;;;;;;5075740;28;20227;-71
2021/06/01 08:37:20;;;;;;;2.40;2.20;;;19.60;99.90;;;;;;5075852;28;20303;-71
2021/06/01 08:39:47;;;;;;;2.97;2.22;;;19.70;99.90;;;;;;5075717;28;20228;-71
2021/06/01 08:42:15;;;;;;;3.53;2.20;;;19.70;99.90;;;;;;5075626;28;20227;-70
2021/06/01 08:44:42;;;;;;;3.90;2.38;;;19.80;99.90;;;;;;5075586;28;20291;-70
2021/06/01 08:47:11;;;;;;;4.93;2.67;;;19.80;99.90;;;;;;5075718;28;20197;-70
2021/06/01 08:49:39;;;;;;;3.45;2.40;;;19.80;99.90;;;;;;5075655;28;20204;-71
2021/06/01 08:52:06;;;;;;;3.58;2.80;;;19.70;99.90;;;;;;5075782;28;20248;-71
2021/06/01 08:54:34;;;;;;;4.43;2.63;;;19.70;99.90;;;;;;5075627;28;20307;-71
2021/06/01 08:57:02;;;;;;;2.53;2.33;;;19.80;99.90;;;;;;5075070;28;20205;-70
2021/06/01 08:59:29;;;;;;;3.88;2.45;;;20.00;99.90;;;;;;5074964;28;20295;-70
2021/06/01 09:01:58;;;;;;;2.75;2.47;;;20.20;99.90;;;;;;5083856;28;20291;-71
2021/06/01 09:04:43;;;;;;;3.80;2.85;;;20.40;99.90;;;;;;5095947;28;20196;-70
2021/06/01 09:07:15;;;;;;;3.58;2.80;;;20.50;99.90;;;;;;5095299;28;20555;-71
2021/06/01 09:10:06;;;;;;;5.68;3.22;;;20.50;99.90;;;;;;5094158;28;20187;-70
2021/06/01 09:12:47;;;;;;;3.00;2.70;;;20.60;99.90;;;;;;5095029;28;20208;-70
2021/06/01 09:15:30;;;;;;;3.72;2.90;;;20.70;99.90;;;;;;5094671;28;20338;-71
2021/06/01 09:21:09;;;;;;;3.70;3.03;;;20.80;99.90;;;;;;5094782;28;20180;-71
2021/06/01 09:23:50;;;;;;;5.47;3.60;;;20.80;99.90;;;;;;5094529;28;20181;-70
2021/06/01 09:26:40;;;;;;;3.60;3.08;;;20.90;99.90;;;;;;5083074;28;20240;-70
2021/06/01 09:29:08;;;;;;;3.60;3.30;;;20.70;99.90;;;;;;5073739;28;20736;-71
2021/06/01 09:31:35;;;;;;;6.10;3.75;;;20.90;99.90;;;;;;5074440;28;20203;-71
2021/06/01 09:34:03;;;;;;;4.15;3.20;;;20.90;99.90;;;;;;5075041;28;20669;-72
2021/06/01 09:36:32;;;;;;;4.20;3.20;;;21.00;99.90;;;;;;5074910;28;20297;-71
2021/06/01 09:38:59;;;;;;;3.88;3.15;;;21.00;99.90;;;;;;5075027;28;20204;-71
2021/06/01 09:41:27;;;;;;;5.50;3.42;;;21.20;99.90;;;;;;5073538;28;20207;-72
2021/06/01 09:43:56;;;;;;;5.85;3.35;;;21.30;99.90;;;;;;5073685;28;20291;-70
2021/06/01 09:46:25;;;;;;;3.83;2.97;;;21.40;99.90;;;;;;5073564;28;20723;-72
2021/06/01 09:48:54;;;;;;;3.60;3.25;;;21.50;99.90;;;;;;5073373;28;20667;-71
2021/06/01 09:51:26;;;;;;;5.85;3.80;;;21.50;99.90;;;;;;5036936;28;1045722;-71
2021/06/01 09:53:56;;;;;;;5.07;3.20;;;21.50;99.90;;;;;;5074343;28;20515;-72
2021/06/01 09:56:24;;;;;;;3.70;3.00;;;21.50;99.90;;;;;;5074452;28;20213;-71
2021/06/01 09:58:51;;;;;;;4.90;3.30;;;21.60;99.90;;;;;;5074488;28;20689;-70
2021/06/01 10:01:19;;;;;;;3.97;2.90;;;21.80;99.90;;;;;;5076992;28;20216;-72
2021/06/01 10:03:49;;;;;;;4.93;3.33;;;21.90;99.90;;;;;;5094674;28;20199;-72
2021/06/01 10:06:18;;;;;;;4.20;3.35;;;22.00;99.90;;;;;;5094569;28;20177;-71
2021/06/01 10:08:48;;;;;;;3.67;3.20;;;22.10;99.90;;;;;;5094511;28;20199;-72
2021/06/01 10:11:17;;;;;;;3.92;3.17;;;22.00;99.90;;;;;;5094544;28;20196;-73
2021/06/01 10:13:45;;;;;;;4.35;3.30;;;21.90;99.90;;;;;;5094062;28;20299;-71
2021/06/01 10:16:15;;;;;;;3.92;3.40;;;21.70;99.90;;;;;;5094282;28;20715;-72
2021/06/01 10:18:44;;;;;;;5.22;3.40;;;21.30;99.90;;;;;;5094278;28;20194;-71
2021/06/01 10:21:14;;;;;;;4.40;3.00;;;21.00;99.90;;;;;;5093273;28;20287;-73
2021/06/01 10:23:43;;;;;;;4.90;3.60;;;20.90;99.90;;;;;;5094067;28;20200;-72
2021/06/01 10:26:12;;;;;;;3.80;3.40;;;21.00;99.90;;;;;;5083610;28;20665;-71
2021/06/01 10:28:46;;;;;;;3.70;3.22;;;21.00;99.90;;;;;;5073467;28;20731;-71
2021/06/01 10:31:31;;;;;;;3.58;3.20;;;21.10;99.90;;;;;;5073141;28;20276;-72
2021/06/01 10:33:59;;;;;;;4.78;3.83;;;21.00;99.90;;;;;;5072059;28;20211;-61
2021/06/01 10:51:01;;;;;;;4.03;3.53;;;21.20;99.90;;;;;;5073188;28;20264;-61
2021/06/01 10:53:39;;;;;;;3.97;3.58;;;21.10;99.90;;;;;;5073322;28;20185;-59
2021/06/01 10:56:07;;;;;;;5.47;3.78;;;21.10;99.90;;;;;;5073255;28;20655;-61
2021/06/01 10:59:11;;;;;;;4.95;3.83;;;21.10;99.90;;;;;;5073143;28;20205;-61
2021/06/01 11:01:58;;;;;;;4.05;3.50;;;21.20;99.90;;;;;;5069818;28;20283;-62
2021/06/01 11:04:27;;;;;;;4.10;3.60;;;21.40;99.90;;;;;;5049968;28;20199;-63
2021/06/01 11:07:28;;;;;;;4.22;3.83;;;21.50;99.90;;;;;;5049767;28;20204;-62
2021/06/01 11:09:56;;;;;;;6.90;5.65;;;21.70;99.90;;;;;;5050168;28;20272;-63
2021/06/01 11:12:47;;;;;;;4.00;3.35;;;22.00;99.90;;;;;;5050087;28;20240;-63
2021/06/01 11:15:28;;;;;;;4.05;3.65;;;22.00;99.90;;;;;;5035240;28;20221;-62
2021/06/01 11:18:34;;;;;;;5.07;3.90;;;22.00;99.90;;;;;;5055131;28;20259;-63
2021/06/01 11:21:12;;;;;;;4.90;4.35;;;22.10;99.90;;;;;;5069676;28;20279;-60
2021/06/01 11:24:20;;;;;;;4.95;3.63;;;22.20;99.90;;;;;;5069543;28;20659;-62
2021/06/01 11:33:25;;;;;;;6.05;3.60;;;22.70;99.90;;;;;;5069637;28;20560;-60
2021/06/01 11:35:58;;;;;;;5.78;3.67;;;22.90;99.90;;;;;;5069341;28;20616;-61
2021/06/01 11:38:33;;;;;;;5.28;4.00;;;23.10;99.90;;;;;;5070084;28;20206;-60
2021/06/01 11:43:50;;;;;;;4.70;3.50;;;23.10;99.90;;;;;;5069716;28;20240;-61
2021/06/01 11:46:31;;;;;;;4.53;4.13;;;23.10;99.90;;;;;;5069665;28;20204;-63
2021/06/01 11:51:46;;;;;;;4.15;3.72;;;23.00;99.90;;;;;;5069186;28;20228;-60
2021/06/01 11:54:16;;;;;;;7.10;4.32;;;22.70;99.90;;;;;;5069465;28;20295;-60
2021/06/01 11:57:02;;;;;;;4.40;4.00;;;22.60;99.90;;;;;;5069350;28;20290;-61
2021/06/01 12:05:20;;;;;;;4.70;3.90;;;22.90;99.90;;;;;;5088703;28;20748;-61
2021/06/01 12:19:05;;;;;;;4.05;3.70;;;22.90;99.90;;;;;;5064371;28;20628;-63
2021/06/01 12:21:35;;;;;;;4.95;3.88;;;22.70;99.90;;;;;;5068619;28;20706;-64
2021/06/01 12:24:06;;;;;;;4.32;3.60;;;22.60;99.90;;;;;;5069002;28;20228;-64
2021/06/01 12:26:44;;;;;;;6.20;4.07;;;22.50;99.90;;;;;;5068891;28;20279;-64
2021/06/01 12:32:04;;;;;;;5.20;4.00;;;22.60;99.90;;;;;;5068546;28;20277;-60
2021/06/01 12:34:45;;;;;;;4.70;4.18;;;22.70;99.90;;;;;;5068672;28;20235;-65
2021/06/01 12:43:05;;;;;;;5.05;3.83;;;22.60;99.90;;;;;;5070364;28;20177;-62
2021/06/01 12:45:55;;;;;;;4.75;4.13;;;22.60;99.90;;;;;;5068243;28;20270;-61
2021/06/01 13:12:30;;;;;;;5.97;4.40;;;23.20;99.90;;;;;;5092469;28;20531;-61
2021/06/01 13:20:56;;;;;;;4.15;3.85;;;23.10;99.90;;;;;;5092336;28;20290;-61
2021/06/01 13:32:14;;;;;;;4.55;4.18;;;22.60;99.90;;;;;;5072064;28;20187;-61
2021/06/01 13:40:31;;;;;;;6.55;4.35;;;22.80;99.90;;;;;;5071746;28;20201;-61
2021/06/01 13:46:02;;;;;;;4.53;4.10;;;23.00;99.90;;;;;;5071321;28;20629;-62
2021/06/01 13:51:41;;;;;;;4.93;4.22;;;23.20;99.90;;;;;;5071244;28;20358;-62
2021/06/01 13:56:57;;;;;;;4.85;4.35;;;23.50;99.90;;;;;;5070413;28;20212;-61
2021/06/01 13:59:37;;;;;;;6.07;4.13;;;23.60;99.90;;;;;;5071113;28;20220;-61
2021/06/01 14:02:26;;;;;;;5.03;4.45;;;23.70;99.90;;;;;;5080834;28;20623;-61
2021/06/01 14:10:52;;;;;;;4.32;3.92;;;23.50;99.90;;;;;;5075035;28;20196;-62
2021/06/01 14:22:22;;;;;;;5.25;4.15;;;23.90;99.90;;;;;;5073936;28;20193;-75
2021/06/01 14:30:27;;;;;;;4.50;4.10;;;23.40;99.90;;;;;;5053836;28;20181;-77
2021/06/01 14:35:52;;;;;;;6.25;4.22;;;23.50;99.90;;;;;;5053778;28;20186;-76
2021/06/01 14:38:27;;;;;;;5.10;4.60;;;23.70;99.90;;;;;;5053390;28;20181;-77
2021/06/01 15:23:36;;;;;;;7.20;4.93;;;23.80;99.90;;;;;;5072681;28;20703;-76
2021/06/01 15:28:57;;;;;;;5.30;4.60;;;23.90;99.90;;;;;;5072671;28;20276;-76
2021/06/01 15:48:15;;;;;;;4.38;3.97;;;24.00;99.90;;;;;;5072552;28;20181;-76
2021/06/01 15:50:47;;;;;;;4.47;4.07;;;24.20;99.90;;;;;;5072300;28;20282;-76
2021/06/01 15:53:35;;;;;;;4.50;4.10;;;24.30;99.90;;;;;;5071841;28;20514;-76
2021/06/01 16:13:14;;;;;;;5.07;4.07;;;24.00;99.90;;;;;;5072352;28;20212;-73
2021/06/01 16:21:36;;;;;;;5.35;4.38;;;23.80;99.90;;;;;;5076096;28;20276;-74
2021/06/01 16:29:42;;;;;;;4.55;4.15;;;23.50;99.90;;;;;;5076005;28;20197;-74
2021/06/01 16:32:24;;;;;;;5.13;4.63;;;23.30;99.90;;;;;;5075896;28;20279;-73
2021/06/01 17:05:30;;;;;;;5.22;4.72;;;22.10;99.90;;;;;;5095510;28;20180;-75
2021/06/01 17:08:18;;;;;;;5.93;4.97;;;22.10;99.90;;;;;;5095172;28;20531;-75
2021/06/01 17:13:38;;;;;;;5.40;4.65;;;22.30;99.90;;;;;;5094763;28;20283;-76
2021/06/01 17:16:09;;;;;;;6.40;5.00;;;22.30;99.90;;;;;;5095163;28;20207;-74
2021/06/01 17:18:55;;;;;;;4.78;4.25;;;22.30;99.90;;;;;;5095104;28;20208;-74
2021/06/01 17:21:51;;;;;;;4.88;4.43;;;22.30;99.90;;;;;;5095269;28;20325;-75
2021/06/01 17:35:40;;;;;;;4.22;3.83;;;22.00;99.90;;;;;;5031914;28;20223;-76